PWSweather.com
Personal Weather Stations
Station Observations
WAREHAM1
West Wareham, MA 02576

West Wareham, MA 02576

Lat: 41.7961059, Lon: -70.775612

Elevation: 88

Station Type: Davis Vantage Vue

http://www.gateway2capecod.com

High Low Average
Temperature 41.2°F5.1°C 27.9°F-2.3°C 36.3°F2.4°C
Dew Point 40.5°F4.7°C 26.4°F-3.1°C 35.1°F1.7°C
Winds 0.9 mph 1.4 kmh Calm Calm Calm SECalm SE
Wind Gusts 7.0 mph11.3 kmh -- 1.0 mph1.6 kmh
Humidity 97% 92% 95%
Pressure 30.32 in1026.8 mb 30.14 in1020.7 mb -
Precipitation 0.12 in3.0 mm - -
Hour Temp Dew Point Humidity Winds Wind Gusts Pressure Precip Precip Rate Daily Precip Total
12:04 AM 27.9°F-2.3°C 26.4°F-3.1°C 94% Calm Calm -- 30.22 in1023.4 mb 0.00 in0.0 mm 0.00 in0.0 mm 0.00 in0.0 mm
12:14 AM 28.0°F-2.2°C 26.6°F-3.0°C 94% Calm Calm -- 30.22 in1023.4 mb 0.00 in0.0 mm 0.00 in0.0 mm 0.00 in0.0 mm
12:24 AM 28.0°F-2.2°C 26.6°F-3.0°C 94% Calm Calm -- 30.22 in1023.4 mb 0.00 in0.0 mm 0.00 in0.0 mm 0.00 in0.0 mm
12:34 AM 28.2°F-2.1°C 26.8°F-2.9°C 94% Calm Calm -- 30.22 in1023.4 mb 0.00 in0.0 mm 0.00 in0.0 mm 0.00 in0.0 mm
12:44 AM 28.6°F-1.9°C 27.1°F-2.7°C 94% Calm Calm -- 30.22 in1023.4 mb 0.00 in0.0 mm 0.00 in0.0 mm 0.00 in0.0 mm
12:55 AM 28.6°F-1.9°C 27.1°F-2.7°C 94% Calm Calm -- 30.22 in1023.4 mb 0.00 in0.0 mm 0.00 in0.0 mm 0.00 in0.0 mm
01:05 AM 28.9°F-1.7°C 27.5°F-2.5°C 94% Calm Calm -- 30.22 in1023.4 mb 0.00 in0.0 mm 0.00 in0.0 mm 0.00 in0.0 mm
01:15 AM 29.1°F-1.6°C 27.7°F-2.4°C 94% Calm Calm -- 30.21 in1023.0 mb 0.00 in0.0 mm 0.00 in0.0 mm 0.00 in0.0 mm
01:25 AM 29.5°F-1.4°C 28.0°F-2.2°C 94% Calm Calm -- 30.22 in1023.4 mb 0.00 in0.0 mm 0.00 in0.0 mm 0.00 in0.0 mm
01:35 AM 29.8°F-1.2°C 28.6°F-1.9°C 95% Calm Calm -- 30.22 in1023.4 mb 0.00 in0.0 mm 0.00 in0.0 mm 0.00 in0.0 mm
01:45 AM 30.4°F-0.9°C 29.1°F-1.6°C 95% Calm Calm -- 30.22 in1023.4 mb 0.00 in0.0 mm 0.00 in0.0 mm 0.00 in0.0 mm
01:55 AM 30.7°F-0.7°C 29.5°F-1.4°C 95% Calm Calm -- 30.22 in1023.4 mb 0.00 in0.0 mm 0.00 in0.0 mm 0.00 in0.0 mm
02:05 AM 31.3°F-0.4°C 29.8°F-1.2°C 94% Calm Calm -- 30.22 in1023.4 mb 0.00 in0.0 mm 0.00 in0.0 mm 0.00 in0.0 mm
02:15 AM 31.5°F-0.3°C 30.0°F-1.1°C 94% Calm Calm -- 30.22 in1023.4 mb 0.00 in0.0 mm 0.00 in0.0 mm 0.00 in0.0 mm
02:25 AM 31.8°F-0.1°C 30.4°F-0.9°C 94% Calm Calm -- 30.22 in1023.4 mb 0.00 in0.0 mm 0.00 in0.0 mm 0.00 in0.0 mm
02:35 AM 32.0°F0.0°C 30.6°F-0.8°C 94% Calm Calm -- 30.22 in1023.4 mb 0.00 in0.0 mm 0.00 in0.0 mm 0.00 in0.0 mm
02:45 AM 32.4°F0.2°C 30.7°F-0.7°C 94% Calm Calm -- 30.22 in1023.4 mb 0.00 in0.0 mm 0.00 in0.0 mm 0.00 in0.0 mm
02:55 AM 32.4°F0.2°C 30.7°F-0.7°C 94% Calm Calm -- 30.22 in1023.4 mb 0.00 in0.0 mm 0.00 in0.0 mm 0.00 in0.0 mm
03:05 AM 32.5°F0.3°C 30.9°F-0.6°C 94% Calm Calm -- 30.22 in1023.4 mb 0.00 in0.0 mm 0.00 in0.0 mm 0.00 in0.0 mm
03:15 AM 32.5°F0.3°C 30.7°F-0.7°C 93% Calm Calm -- 30.21 in1023.0 mb 0.00 in0.0 mm 0.00 in0.0 mm 0.00 in0.0 mm
03:25 AM 32.5°F0.3°C 30.7°F-0.7°C 93% Calm Calm -- 30.21 in1023.0 mb 0.00 in0.0 mm 0.00 in0.0 mm 0.00 in0.0 mm
03:35 AM 32.9°F0.5°C 31.1°F-0.5°C 93% Calm Calm -- 30.21 in1023.0 mb 0.00 in0.0 mm 0.00 in0.0 mm 0.00 in0.0 mm
03:45 AM 32.9°F0.5°C 31.1°F-0.5°C 93% Calm Calm -- 30.22 in1023.4 mb 0.00 in0.0 mm 0.00 in0.0 mm 0.00 in0.0 mm
03:55 AM 33.1°F0.6°C 31.3°F-0.4°C 93% Calm Calm -- 30.22 in1023.4 mb 0.00 in0.0 mm 0.00 in0.0 mm 0.00 in0.0 mm
04:05 AM 33.3°F0.7°C 31.5°F-0.3°C 93% Calm Calm -- 30.22 in1023.4 mb 0.00 in0.0 mm 0.00 in0.0 mm 0.00 in0.0 mm
04:15 AM 33.6°F0.9°C 31.8°F-0.1°C 93% Calm Calm -- 30.22 in1023.4 mb 0.00 in0.0 mm 0.00 in0.0 mm 0.00 in0.0 mm
04:25 AM 33.8°F1.0°C 32.0°F0.0°C 93% Calm Calm -- 30.23 in1023.7 mb 0.00 in0.0 mm 0.00 in0.0 mm 0.00 in0.0 mm
04:35 AM 34.0°F1.1°C 32.2°F0.1°C 93% Calm Calm -- 30.23 in1023.7 mb 0.00 in0.0 mm 0.00 in0.0 mm 0.00 in0.0 mm
04:45 AM 33.8°F1.0°C 31.6°F-0.2°C 92% Calm Calm -- 30.23 in1023.7 mb 0.00 in0.0 mm 0.00 in0.0 mm 0.00 in0.0 mm
04:55 AM 33.8°F1.0°C 31.6°F-0.2°C 92% Calm Calm -- 30.23 in1023.7 mb 0.00 in0.0 mm 0.00 in0.0 mm 0.00 in0.0 mm
05:05 AM 33.8°F1.0°C 31.6°F-0.2°C 92% Calm Calm -- 30.23 in1023.7 mb 0.00 in0.0 mm 0.00 in0.0 mm 0.00 in0.0 mm
05:15 AM 33.8°F1.0°C 31.6°F-0.2°C 92% Calm Calm -- 30.23 in1023.7 mb 0.00 in0.0 mm 0.00 in0.0 mm 0.00 in0.0 mm
05:25 AM 33.8°F1.0°C 32.0°F0.0°C 93% Calm Calm -- 30.23 in1023.7 mb 0.00 in0.0 mm 0.00 in0.0 mm 0.00 in0.0 mm
05:35 AM 34.0°F1.1°C 32.2°F0.1°C 93% Calm Calm -- 30.23 in1023.7 mb 0.00 in0.0 mm 0.00 in0.0 mm 0.00 in0.0 mm
05:45 AM 34.0°F1.1°C 32.2°F0.1°C 93% Calm Calm -- 30.23 in1023.7 mb 0.00 in0.0 mm 0.00 in0.0 mm 0.00 in0.0 mm
05:55 AM 34.0°F1.1°C 32.2°F0.1°C 93% Calm Calm -- 30.23 in1023.7 mb 0.00 in0.0 mm 0.00 in0.0 mm 0.00 in0.0 mm
06:05 AM 34.0°F1.1°C 32.2°F0.1°C 93% Calm Calm -- 30.24 in1024.0 mb 0.00 in0.0 mm 0.00 in0.0 mm 0.00 in0.0 mm
06:15 AM 34.2°F1.2°C 32.4°F0.2°C 93% Calm Calm -- 30.23 in1023.7 mb 0.00 in0.0 mm 0.00 in0.0 mm 0.00 in0.0 mm
06:25 AM 34.2°F1.2°C 32.5°F0.3°C 94% Calm Calm -- 30.23 in1023.7 mb 0.00 in0.0 mm 0.00 in0.0 mm 0.00 in0.0 mm
06:35 AM 34.2°F1.2°C 32.5°F0.3°C 94% Calm Calm -- 30.24 in1024.0 mb 0.00 in0.0 mm 0.00 in0.0 mm 0.00 in0.0 mm
06:45 AM 34.5°F1.4°C 32.9°F0.5°C 94% Calm Calm -- 30.24 in1024.0 mb 0.01 in0.3 mm 0.06 in1.5 mm 0.01 in0.3 mm
06:55 AM 34.7°F1.5°C 33.1°F0.6°C 94% Calm Calm -- 30.24 in1024.0 mb 0.01 in0.3 mm 0.00 in0.0 mm 0.01 in0.3 mm
07:05 AM 34.7°F1.5°C 33.1°F0.6°C 94% Calm Calm -- 30.24 in1024.0 mb 0.01 in0.3 mm 0.00 in0.0 mm 0.01 in0.3 mm
07:15 AM 34.9°F1.6°C 33.3°F0.7°C 94% Calm Calm -- 30.24 in1024.0 mb 0.01 in0.3 mm 0.00 in0.0 mm 0.01 in0.3 mm
07:25 AM 34.9°F1.6°C 33.3°F0.7°C 94% Calm Calm -- 30.24 in1024.0 mb 0.01 in0.3 mm 0.00 in0.0 mm 0.01 in0.3 mm
07:35 AM 35.1°F1.7°C 33.4°F0.8°C 94% Calm Calm -- 30.24 in1024.0 mb 0.01 in0.3 mm 0.00 in0.0 mm 0.01 in0.3 mm
07:45 AM 35.1°F1.7°C 33.4°F0.8°C 94% Calm Calm -- 30.25 in1024.4 mb 0.00 in0.0 mm 0.00 in0.0 mm 0.01 in0.3 mm
07:55 AM 35.2°F1.8°C 33.6°F0.9°C 94% Calm Calm -- 30.26 in1024.7 mb 0.00 in0.0 mm 0.00 in0.0 mm 0.01 in0.3 mm
08:05 AM 35.4°F1.9°C 33.8°F1.0°C 94% Calm Calm -- 30.26 in1024.7 mb 0.00 in0.0 mm 0.00 in0.0 mm 0.01 in0.3 mm
08:15 AM 35.6°F2.0°C 34.0°F1.1°C 94% Calm Calm -- 30.27 in1025.1 mb 0.00 in0.0 mm 0.00 in0.0 mm 0.01 in0.3 mm
08:25 AM 35.8°F2.1°C 34.2°F1.2°C 94% Calm Calm -- 30.27 in1025.1 mb 0.01 in0.3 mm 0.06 in1.5 mm 0.02 in0.5 mm
08:35 AM 36.0°F2.2°C 34.3°F1.3°C 94% Calm Calm -- 30.27 in1025.1 mb 0.01 in0.3 mm 0.00 in0.0 mm 0.02 in0.5 mm
08:45 AM 36.1°F2.3°C 34.5°F1.4°C 94% Calm Calm -- 30.27 in1025.1 mb 0.01 in0.3 mm 0.00 in0.0 mm 0.02 in0.5 mm
08:55 AM 36.1°F2.3°C 34.5°F1.4°C 94% Calm Calm -- 30.28 in1025.4 mb 0.01 in0.3 mm 0.00 in0.0 mm 0.02 in0.5 mm
09:05 AM 36.0°F2.2°C 34.3°F1.3°C 94% Calm Calm -- 30.29 in1025.7 mb 0.01 in0.3 mm 0.00 in0.0 mm 0.02 in0.5 mm
09:15 AM 36.0°F2.2°C 34.7°F1.5°C 95% Calm Calm -- 30.29 in1025.7 mb 0.02 in0.5 mm 0.06 in1.5 mm 0.03 in0.8 mm
09:25 AM 36.1°F2.3°C 34.9°F1.6°C 95% Calm Calm -- 30.30 in1026.1 mb 0.02 in0.5 mm 0.00 in0.0 mm 0.04 in1.0 mm
09:35 AM 36.1°F2.3°C 34.9°F1.6°C 95% Calm Calm -- 30.30 in1026.1 mb 0.02 in0.5 mm 0.00 in0.0 mm 0.04 in1.0 mm
09:45 AM 36.3°F2.4°C 35.1°F1.7°C 95% Calm Calm -- 30.30 in1026.1 mb 0.03 in0.8 mm 0.06 in1.5 mm 0.05 in1.3 mm
09:55 AM 36.1°F2.3°C 34.9°F1.6°C 95% Calm Calm 1.0 mph1.6 kmh 30.30 in1026.1 mb 0.03 in0.8 mm 0.00 in0.0 mm 0.05 in1.3 mm
10:05 AM 36.5°F2.5°C 35.2°F1.8°C 95% Calm Calm 0.9 mph1.4 kmh 30.31 in1026.4 mb 0.04 in1.0 mm 0.01 in0.3 mm 0.06 in1.5 mm
10:15 AM 36.7°F2.6°C 35.4°F1.9°C 95% Calm Calm 0.9 mph1.4 kmh 30.31 in1026.4 mb 0.03 in0.8 mm 0.00 in0.0 mm 0.06 in1.5 mm
10:25 AM 36.9°F2.7°C 35.6°F2.0°C 95% Calm Calm -- 30.31 in1026.4 mb 0.02 in0.5 mm 0.00 in0.0 mm 0.06 in1.5 mm
10:35 AM 37.0°F2.8°C 35.8°F2.1°C 95% Calm Calm -- 30.32 in1026.8 mb 0.02 in0.5 mm 0.00 in0.0 mm 0.06 in1.5 mm
10:45 AM 37.2°F2.9°C 36.0°F2.2°C 95% Calm Calm -- 30.31 in1026.4 mb 0.01 in0.3 mm 0.00 in0.0 mm 0.07 in1.8 mm
10:55 AM 37.2°F2.9°C 36.0°F2.2°C 95% Calm Calm 1.0 mph1.6 kmh 30.31 in1026.4 mb 0.02 in0.5 mm 0.06 in1.5 mm 0.07 in1.8 mm
11:05 AM 37.2°F2.9°C 36.0°F2.2°C 95% Calm Calm 0.9 mph1.4 kmh 30.30 in1026.1 mb 0.01 in0.3 mm 0.00 in0.0 mm 0.07 in1.8 mm
11:15 AM 37.2°F2.9°C 36.1°F2.3°C 96% Calm Calm 0.9 mph1.4 kmh 30.29 in1025.7 mb 0.01 in0.3 mm 0.00 in0.0 mm 0.07 in1.8 mm
11:25 AM 37.6°F3.1°C 36.5°F2.5°C 96% Calm Calm 0.9 mph1.4 kmh 30.29 in1025.7 mb 0.02 in0.5 mm 0.06 in1.5 mm 0.08 in2.0 mm
11:35 AM 37.6°F3.1°C 36.5°F2.5°C 96% Calm Calm 2.0 mph3.2 kmh 30.28 in1025.4 mb 0.02 in0.5 mm 0.00 in0.0 mm 0.08 in2.0 mm
11:45 AM 37.9°F3.3°C 36.9°F2.7°C 96% Calm Calm 0.9 mph1.4 kmh 30.28 in1025.4 mb 0.02 in0.5 mm 0.00 in0.0 mm 0.08 in2.0 mm
11:55 AM 37.9°F3.3°C 36.9°F2.7°C 96% Calm Calm 0.9 mph1.4 kmh 30.28 in1025.4 mb 0.02 in0.5 mm 0.00 in0.0 mm 0.09 in2.3 mm
12:05 PM 37.9°F3.3°C 36.9°F2.7°C 96% Calm Calm 0.9 mph1.4 kmh 30.28 in1025.4 mb 0.02 in0.5 mm 0.00 in0.0 mm 0.09 in2.3 mm
12:15 PM 38.1°F3.4°C 37.0°F2.8°C 96% Calm Calm 0.9 mph1.4 kmh 30.28 in1025.4 mb 0.02 in0.5 mm 0.00 in0.0 mm 0.09 in2.3 mm
12:25 PM 38.1°F3.4°C 37.0°F2.8°C 96% Calm Calm -- 30.27 in1025.1 mb 0.01 in0.3 mm 0.00 in0.0 mm 0.09 in2.3 mm
12:35 PM 38.3°F3.5°C 37.2°F2.9°C 96% Calm Calm 2.0 mph3.2 kmh 30.27 in1025.1 mb 0.02 in0.5 mm 0.06 in1.5 mm 0.10 in2.5 mm
12:45 PM 38.5°F3.6°C 37.4°F3.0°C 96% Calm Calm 0.9 mph1.4 kmh 30.26 in1024.7 mb 0.02 in0.5 mm 0.00 in0.0 mm 0.10 in2.5 mm
12:55 PM 38.5°F3.6°C 37.4°F3.0°C 96% Calm Calm 0.9 mph1.4 kmh 30.26 in1024.7 mb 0.01 in0.3 mm 0.00 in0.0 mm 0.10 in2.5 mm
01:05 PM 38.5°F3.6°C 37.4°F3.0°C 96% Calm Calm 2.0 mph3.2 kmh 30.25 in1024.4 mb 0.01 in0.3 mm 0.00 in0.0 mm 0.10 in2.5 mm
01:15 PM 38.7°F3.7°C 37.6°F3.1°C 96% 0.9 mph SE1.4 kmh SE 4.0 mph6.4 kmh 30.24 in1024.0 mb 0.01 in0.3 mm 0.00 in0.0 mm 0.10 in2.5 mm
01:25 PM 38.8°F3.8°C 37.8°F3.2°C 96% Calm Calm 0.9 mph1.4 kmh 30.24 in1024.0 mb 0.01 in0.3 mm 0.00 in0.0 mm 0.10 in2.5 mm
01:35 PM 38.8°F3.8°C 37.8°F3.2°C 96% Calm Calm 0.9 mph1.4 kmh 30.25 in1024.4 mb 0.00 in0.0 mm 0.00 in0.0 mm 0.10 in2.5 mm
01:45 PM 38.8°F3.8°C 37.8°F3.2°C 96% Calm Calm 0.9 mph1.4 kmh 30.25 in1024.4 mb 0.00 in0.0 mm 0.00 in0.0 mm 0.10 in2.5 mm
01:55 PM 38.8°F3.8°C 37.8°F3.2°C 96% Calm Calm -- 30.26 in1024.7 mb 0.00 in0.0 mm 0.00 in0.0 mm 0.10 in2.5 mm
02:05 PM 38.8°F3.8°C 37.8°F3.2°C 96% Calm Calm -- 30.27 in1025.1 mb 0.00 in0.0 mm 0.00 in0.0 mm 0.10 in2.5 mm
02:15 PM 38.8°F3.8°C 37.8°F3.2°C 96% Calm Calm -- 30.26 in1024.7 mb 0.00 in0.0 mm 0.00 in0.0 mm 0.10 in2.5 mm
02:25 PM 38.7°F3.7°C 37.6°F3.1°C 96% Calm Calm -- 30.26 in1024.7 mb 0.00 in0.0 mm 0.00 in0.0 mm 0.10 in2.5 mm
02:35 PM 38.7°F3.7°C 37.6°F3.1°C 96% Calm Calm -- 30.27 in1025.1 mb 0.01 in0.3 mm 0.06 in1.5 mm 0.11 in2.8 mm
02:45 PM 38.7°F3.7°C 37.6°F3.1°C 96% Calm Calm 2.0 mph3.2 kmh 30.27 in1025.1 mb 0.01 in0.3 mm 0.00 in0.0 mm 0.11 in2.8 mm
02:55 PM 38.8°F3.8°C 37.8°F3.2°C 96% 0.9 mph NE1.4 kmh NE 2.9 mph4.7 kmh 30.27 in1025.1 mb 0.01 in0.3 mm 0.00 in0.0 mm 0.11 in2.8 mm
03:05 PM 38.7°F3.7°C 37.6°F3.1°C 96% Calm Calm 2.0 mph3.2 kmh 30.27 in1025.1 mb 0.01 in0.3 mm 0.00 in0.0 mm 0.11 in2.8 mm
03:15 PM 38.8°F3.8°C 37.8°F3.2°C 96% Calm Calm 1.0 mph1.6 kmh 30.27 in1025.1 mb 0.01 in0.3 mm 0.00 in0.0 mm 0.11 in2.8 mm
03:25 PM 38.8°F3.8°C 37.8°F3.2°C 96% Calm Calm 4.0 mph6.4 kmh 30.27 in1025.1 mb 0.01 in0.3 mm 0.00 in0.0 mm 0.11 in2.8 mm
03:35 PM 38.8°F3.8°C 37.8°F3.2°C 96% 0.9 mph E1.4 kmh E 4.0 mph6.4 kmh 30.27 in1025.1 mb 0.00 in0.0 mm 0.00 in0.0 mm 0.11 in2.8 mm
03:45 PM 38.8°F3.8°C 37.8°F3.2°C 96% Calm Calm 3.0 mph4.8 kmh 30.27 in1025.1 mb 0.00 in0.0 mm 0.00 in0.0 mm 0.11 in2.8 mm
03:55 PM 38.7°F3.7°C 37.6°F3.1°C 96% 0.9 mph ENE1.4 kmh ENE 2.9 mph4.7 kmh 30.27 in1025.1 mb 0.00 in0.0 mm 0.00 in0.0 mm 0.11 in2.8 mm
04:05 PM 38.7°F3.7°C 37.6°F3.1°C 96% 0.9 mph ENE1.4 kmh ENE 2.9 mph4.7 kmh 30.27 in1025.1 mb 0.00 in0.0 mm 0.00 in0.0 mm 0.11 in2.8 mm
04:15 PM 38.5°F3.6°C 37.4°F3.0°C 96% Calm Calm 3.0 mph4.8 kmh 30.27 in1025.1 mb 0.00 in0.0 mm 0.00 in0.0 mm 0.11 in2.8 mm
04:25 PM 38.5°F3.6°C 37.4°F3.0°C 96% Calm Calm 2.9 mph4.7 kmh 30.27 in1025.1 mb 0.00 in0.0 mm 0.00 in0.0 mm 0.11 in2.8 mm
04:35 PM 38.5°F3.6°C 37.4°F3.0°C 96% Calm Calm 2.0 mph3.2 kmh 30.27 in1025.1 mb 0.00 in0.0 mm 0.00 in0.0 mm 0.11 in2.8 mm
04:45 PM 38.3°F3.5°C 37.2°F2.9°C 96% Calm Calm 3.0 mph4.8 kmh 30.27 in1025.1 mb 0.00 in0.0 mm 0.00 in0.0 mm 0.11 in2.8 mm
04:55 PM 38.1°F3.4°C 37.0°F2.8°C 96% 0.9 mph E1.4 kmh E 4.9 mph7.9 kmh 30.26 in1024.7 mb 0.00 in0.0 mm 0.00 in0.0 mm 0.11 in2.8 mm
05:05 PM 38.1°F3.4°C 37.0°F2.8°C 96% 0.9 mph ESE1.4 kmh ESE 6.0 mph9.7 kmh 30.26 in1024.7 mb 0.00 in0.0 mm 0.00 in0.0 mm 0.11 in2.8 mm
05:15 PM 38.1°F3.4°C 37.0°F2.8°C 96% 0.9 mph ENE1.4 kmh ENE 5.0 mph8.0 kmh 30.26 in1024.7 mb 0.00 in0.0 mm 0.00 in0.0 mm 0.11 in2.8 mm
05:26 PM 38.1°F3.4°C 37.0°F2.8°C 96% 0.9 mph E1.4 kmh E 7.0 mph11.3 kmh 30.26 in1024.7 mb 0.00 in0.0 mm 0.00 in0.0 mm 0.11 in2.8 mm
05:36 PM 38.1°F3.4°C 37.0°F2.8°C 96% 0.9 mph E1.4 kmh E 5.0 mph8.0 kmh 30.26 in1024.7 mb 0.00 in0.0 mm 0.00 in0.0 mm 0.11 in2.8 mm
05:46 PM 38.1°F3.4°C 37.4°F3.0°C 97% 0.9 mph NE1.4 kmh NE 4.9 mph7.9 kmh 30.26 in1024.7 mb 0.00 in0.0 mm 0.00 in0.0 mm 0.11 in2.8 mm
05:56 PM 38.1°F3.4°C 37.4°F3.0°C 97% 0.9 mph E1.4 kmh E 4.9 mph7.9 kmh 30.26 in1024.7 mb 0.00 in0.0 mm 0.00 in0.0 mm 0.11 in2.8 mm
06:06 PM 38.1°F3.4°C 37.4°F3.0°C 97% Calm Calm 2.9 mph4.7 kmh 30.27 in1025.1 mb 0.00 in0.0 mm 0.00 in0.0 mm 0.11 in2.8 mm
06:16 PM 38.1°F3.4°C 37.4°F3.0°C 97% Calm Calm 2.9 mph4.7 kmh 30.27 in1025.1 mb 0.00 in0.0 mm 0.00 in0.0 mm 0.11 in2.8 mm
06:26 PM 38.1°F3.4°C 37.4°F3.0°C 97% 0.9 mph ENE1.4 kmh ENE 4.0 mph6.4 kmh 30.27 in1025.1 mb 0.00 in0.0 mm 0.00 in0.0 mm 0.11 in2.8 mm
06:36 PM 38.1°F3.4°C 37.4°F3.0°C 97% 0.9 mph E1.4 kmh E 2.9 mph4.7 kmh 30.27 in1025.1 mb 0.00 in0.0 mm 0.00 in0.0 mm 0.11 in2.8 mm
06:46 PM 38.1°F3.4°C 37.4°F3.0°C 97% 0.9 mph SE1.4 kmh SE 4.9 mph7.9 kmh 30.27 in1025.1 mb 0.00 in0.0 mm 0.00 in0.0 mm 0.11 in2.8 mm
06:56 PM 37.9°F3.3°C 37.2°F2.9°C 97% 0.9 mph NE1.4 kmh NE 4.0 mph6.4 kmh 30.26 in1024.7 mb 0.00 in0.0 mm 0.00 in0.0 mm 0.11 in2.8 mm
07:06 PM 38.1°F3.4°C 37.4°F3.0°C 97% 0.9 mph ENE1.4 kmh ENE 6.9 mph11.1 kmh 30.26 in1024.7 mb 0.00 in0.0 mm 0.00 in0.0 mm 0.11 in2.8 mm
07:16 PM 38.1°F3.4°C 37.4°F3.0°C 97% Calm Calm 2.0 mph3.2 kmh 30.26 in1024.7 mb 0.00 in0.0 mm 0.00 in0.0 mm 0.11 in2.8 mm
07:26 PM 37.9°F3.3°C 37.2°F2.9°C 97% Calm Calm 2.9 mph4.7 kmh 30.26 in1024.7 mb 0.00 in0.0 mm 0.00 in0.0 mm 0.11 in2.8 mm
07:36 PM 38.1°F3.4°C 37.4°F3.0°C 97% Calm Calm 0.9 mph1.4 kmh 30.26 in1024.7 mb 0.00 in0.0 mm 0.00 in0.0 mm 0.11 in2.8 mm
07:46 PM 38.1°F3.4°C 37.4°F3.0°C 97% Calm Calm 2.0 mph3.2 kmh 30.25 in1024.4 mb 0.00 in0.0 mm 0.00 in0.0 mm 0.11 in2.8 mm
07:56 PM 38.1°F3.4°C 37.4°F3.0°C 97% Calm Calm 0.9 mph1.4 kmh 30.24 in1024.0 mb 0.00 in0.0 mm 0.00 in0.0 mm 0.11 in2.8 mm
08:06 PM 38.1°F3.4°C 37.4°F3.0°C 97% Calm Calm 0.9 mph1.4 kmh 30.24 in1024.0 mb 0.00 in0.0 mm 0.00 in0.0 mm 0.11 in2.8 mm
08:16 PM 38.3°F3.5°C 37.6°F3.1°C 97% Calm Calm 0.9 mph1.4 kmh 30.24 in1024.0 mb 0.01 in0.3 mm 0.06 in1.5 mm 0.12 in3.0 mm
08:26 PM 38.3°F3.5°C 37.6°F3.1°C 97% Calm Calm -- 30.23 in1023.7 mb 0.01 in0.3 mm 0.00 in0.0 mm 0.12 in3.0 mm
08:36 PM 38.5°F3.6°C 37.8°F3.2°C 97% Calm Calm -- 30.22 in1023.4 mb 0.01 in0.3 mm 0.00 in0.0 mm 0.12 in3.0 mm
08:46 PM 38.5°F3.6°C 37.8°F3.2°C 97% Calm Calm 0.9 mph1.4 kmh 30.22 in1023.4 mb 0.01 in0.3 mm 0.00 in0.0 mm 0.12 in3.0 mm
08:56 PM 38.5°F3.6°C 37.8°F3.2°C 97% Calm Calm -- 30.22 in1023.4 mb 0.01 in0.3 mm 0.00 in0.0 mm 0.12 in3.0 mm
09:06 PM 38.5°F3.6°C 37.8°F3.2°C 97% Calm Calm -- 30.22 in1023.4 mb 0.01 in0.3 mm 0.00 in0.0 mm 0.12 in3.0 mm
09:16 PM 38.8°F3.8°C 38.1°F3.4°C 97% Calm Calm -- 30.21 in1023.0 mb 0.00 in0.0 mm 0.00 in0.0 mm 0.12 in3.0 mm
09:26 PM 39.2°F4.0°C 38.5°F3.6°C 97% Calm Calm -- 30.21 in1023.0 mb 0.00 in0.0 mm 0.00 in0.0 mm 0.12 in3.0 mm
09:36 PM 39.6°F4.2°C 38.8°F3.8°C 97% Calm Calm -- 30.20 in1022.7 mb 0.00 in0.0 mm 0.00 in0.0 mm 0.12 in3.0 mm
09:46 PM 39.6°F4.2°C 38.8°F3.8°C 97% Calm Calm -- 30.20 in1022.7 mb 0.00 in0.0 mm 0.00 in0.0 mm 0.12 in3.0 mm
09:56 PM 39.9°F4.4°C 39.2°F4.0°C 97% Calm Calm 1.0 mph1.6 kmh 30.19 in1022.4 mb 0.00 in0.0 mm 0.00 in0.0 mm 0.12 in3.0 mm
10:06 PM 39.9°F4.4°C 39.2°F4.0°C 97% Calm Calm 0.9 mph1.4 kmh 30.20 in1022.7 mb 0.00 in0.0 mm 0.00 in0.0 mm 0.12 in3.0 mm
10:16 PM 40.1°F4.5°C 39.4°F4.1°C 97% Calm Calm 2.9 mph4.7 kmh 30.19 in1022.4 mb 0.00 in0.0 mm 0.00 in0.0 mm 0.12 in3.0 mm
10:26 PM 40.5°F4.7°C 39.7°F4.3°C 97% Calm Calm 2.0 mph3.2 kmh 30.19 in1022.4 mb 0.00 in0.0 mm 0.00 in0.0 mm 0.12 in3.0 mm
10:36 PM 40.5°F4.7°C 39.7°F4.3°C 97% Calm Calm -- 30.18 in1022.0 mb 0.00 in0.0 mm 0.00 in0.0 mm 0.12 in3.0 mm
10:46 PM 40.5°F4.7°C 39.7°F4.3°C 97% Calm Calm 1.0 mph1.6 kmh 30.17 in1021.7 mb 0.00 in0.0 mm 0.00 in0.0 mm 0.12 in3.0 mm
10:56 PM 40.5°F4.7°C 39.7°F4.3°C 97% Calm Calm 2.0 mph3.2 kmh 30.16 in1021.3 mb 0.00 in0.0 mm 0.00 in0.0 mm 0.12 in3.0 mm
11:06 PM 40.5°F4.7°C 39.7°F4.3°C 97% Calm Calm -- 30.16 in1021.3 mb 0.00 in0.0 mm 0.00 in0.0 mm 0.12 in3.0 mm
11:16 PM 40.6°F4.8°C 39.9°F4.4°C 97% Calm Calm 4.0 mph6.4 kmh 30.16 in1021.3 mb 0.00 in0.0 mm 0.00 in0.0 mm 0.12 in3.0 mm
11:26 PM 40.6°F4.8°C 39.9°F4.4°C 97% Calm Calm 2.0 mph3.2 kmh 30.15 in1021.0 mb 0.00 in0.0 mm 0.00 in0.0 mm 0.12 in3.0 mm
11:36 PM 40.8°F4.9°C 40.1°F4.5°C 97% Calm Calm 2.0 mph3.2 kmh 30.15 in1021.0 mb 0.00 in0.0 mm 0.00 in0.0 mm 0.12 in3.0 mm
11:46 PM 41.2°F5.1°C 40.5°F4.7°C 97% Calm Calm 2.0 mph3.2 kmh 30.14 in1020.7 mb 0.00 in0.0 mm 0.00 in0.0 mm 0.12 in3.0 mm
11:56 PM 41.2°F5.1°C 40.5°F4.7°C 97% Calm Calm 3.0 mph4.8 kmh 30.14 in1020.7 mb 0.00 in0.0 mm 0.00 in0.0 mm 0.12 in3.0 mm